Time;durP1;ratioP1;P1;durP2;ratioP2;P2;SDS_P1;SDS_P2;PMS_P1;PMS_P2;Temp;Humidity;BMP_temperature;BMP_pressure;BME280_temperature;BME280_humidity;BME280_pressure;Samples;Min_cycle;Max_cycle;Signal;HPM_P1;HPM_P2
2023/12/01 00:01:43;;;;;;;36.13;12.53;;;-0.30;99.90;;;;;;5001369;28;20050;-75
2023/12/01 00:04:09;;;;;;;35.03;13.37;;;-0.30;99.90;;;;;;4991399;28;20388;-75
2023/12/01 00:06:34;;;;;;;35.80;13.37;;;-0.30;99.90;;;;;;4987201;28;20034;-75
2023/12/01 00:09:00;;;;;;;32.23;12.77;;;-0.30;99.90;;;;;;4994151;28;20042;-75
2023/12/01 00:11:26;;;;;;;30.07;11.73;;;-0.30;99.90;;;;;;4992128;28;20062;-75
2023/12/01 00:13:51;;;;;;;30.77;11.90;;;-0.40;99.90;;;;;;4993179;28;20129;-75
2023/12/01 00:16:17;;;;;;;31.70;12.63;;;-0.30;99.90;;;;;;4992530;28;20423;-75
2023/12/01 00:18:43;;;;;;;31.50;13.00;;;-0.40;99.90;;;;;;4989298;28;20038;-75
2023/12/01 00:21:08;;;;;;;27.53;11.87;;;-0.40;99.90;;;;;;4988674;28;20046;-75
2023/12/01 00:23:34;;;;;;;29.53;11.43;;;-0.40;99.90;;;;;;4996192;28;20042;-75
2023/12/01 00:25:59;;;;;;;28.60;11.87;;;-0.50;99.90;;;;;;5000688;28;20121;-75
2023/12/01 00:28:25;;;;;;;25.63;11.47;;;-0.50;99.90;;;;;;4986060;28;20518;-76
2023/12/01 00:30:50;;;;;;;30.17;12.57;;;-0.50;99.90;;;;;;4985860;28;20033;-75
2023/12/01 00:33:16;;;;;;;27.90;12.30;;;-0.40;99.90;;;;;;4992608;28;20074;-76
2023/12/01 00:35:42;;;;;;;29.53;11.87;;;-0.50;99.90;;;;;;4990553;28;20038;-75
2023/12/01 00:38:08;;;;;;;24.73;11.03;;;-0.50;99.90;;;;;;4994768;28;21004;-76
2023/12/01 00:40:33;;;;;;;21.83;9.73;;;-0.50;99.90;;;;;;4997544;28;20104;-76
2023/12/01 00:43:01;;;;;;;26.87;11.90;;;-0.50;99.90;;;;;;4996264;28;20069;-75
2023/12/01 00:45:29;;;;;;;23.10;10.07;;;-0.50;99.90;;;;;;4994615;28;20045;-75
2023/12/01 00:47:55;;;;;;;26.33;11.10;;;-0.60;99.90;;;;;;4997592;28;20042;-76
2023/12/01 00:50:20;;;;;;;28.43;11.63;;;-0.60;99.90;;;;;;4994248;28;20034;-75
2023/12/01 00:52:46;;;;;;;30.60;11.77;;;-0.60;99.90;;;;;;4991523;28;20034;-75
2023/12/01 00:55:12;;;;;;;31.43;13.20;;;-0.60;99.90;;;;;;5011370;28;20034;-75
2023/12/01 00:57:37;;;;;;;32.23;13.50;;;-0.60;99.90;;;;;;4991389;28;20192;-76
2023/12/01 01:00:04;;;;;;;30.03;13.47;;;-0.60;99.90;;;;;;4996349;28;20042;-76
2023/12/01 01:02:31;;;;;;;25.53;12.63;;;-0.60;99.90;;;;;;4992713;28;20427;-75
2023/12/01 01:04:56;;;;;;;26.23;12.83;;;-0.70;99.90;;;;;;5008805;28;20038;-76
2023/12/01 01:07:22;;;;;;;27.50;12.70;;;-0.70;99.90;;;;;;4995314;28;20033;-76
2023/12/01 01:09:48;;;;;;;28.47;12.93;;;-0.80;99.90;;;;;;4995851;28;20061;-76
2023/12/01 01:12:47;;;;;;;;;;;;;;;;;;;;;
2023/12/01 01:15:31;;;;;;;27.10;13.20;;;-0.80;99.90;;;;;;5008882;28;20654;-76
2023/12/01 01:17:57;;;;;;;28.63;13.13;;;-0.90;99.90;;;;;;4987369;28;20136;-76
2023/12/01 01:20:23;;;;;;;29.60;13.37;;;-0.90;99.90;;;;;;4992572;28;20034;-76
2023/12/01 01:22:48;;;;;;;23.83;12.50;;;-0.90;99.90;;;;;;4978036;28;20065;-76
2023/12/01 01:25:14;;;;;;;26.53;12.87;;;-0.90;99.90;;;;;;5013334;28;20099;-76
2023/12/01 01:27:39;;;;;;;31.03;13.23;;;-0.90;99.90;;;;;;4997504;28;20129;-76
2023/12/01 01:30:06;;;;;;;29.63;13.47;;;-1.00;99.90;;;;;;4992709;28;20073;-76
2023/12/01 01:32:31;;;;;;;29.23;13.67;;;-1.00;99.90;;;;;;4989929;28;20072;-78
2023/12/01 01:34:57;;;;;;;31.03;13.90;;;-1.00;99.90;;;;;;4993758;28;20487;-76
2023/12/01 01:37:23;;;;;;;30.53;14.20;;;-1.00;99.90;;;;;;4992562;28;20034;-76
2023/12/01 01:39:48;;;;;;;30.93;13.73;;;-1.00;99.90;;;;;;4999454;28;20034;-76
2023/12/01 01:42:14;;;;;;;29.57;13.60;;;-1.00;99.90;;;;;;4998317;28;20042;-76
2023/12/01 01:44:39;;;;;;;30.77;14.13;;;-1.00;99.90;;;;;;4998138;28;20035;-76
2023/12/01 01:47:06;;;;;;;33.37;14.40;;;-1.00;99.90;;;;;;4995988;28;20037;-76
2023/12/01 01:49:32;;;;;;;31.67;14.80;;;-1.00;99.90;;;;;;4988360;28;20041;-76
2023/12/01 01:51:59;;;;;;;31.70;14.13;;;-1.00;99.90;;;;;;4994609;28;20049;-76
2023/12/01 01:54:26;;;;;;;27.47;13.23;;;-1.00;99.90;;;;;;4994283;28;20041;-76
2023/12/01 01:56:52;;;;;;;34.97;14.90;;;-1.00;99.90;;;;;;4992606;28;20103;-76
2023/12/01 01:59:20;;;;;;;31.50;14.07;;;-1.10;99.90;;;;;;4991591;28;20113;-76
2023/12/01 02:01:47;;;;;;;30.00;13.67;;;-1.10;99.90;;;;;;5002991;28;20077;-76
2023/12/01 02:04:13;;;;;;;32.97;14.20;;;-1.10;99.90;;;;;;4993537;28;20504;-76
2023/12/01 02:06:39;;;;;;;32.13;13.63;;;-1.10;99.90;;;;;;4984391;28;20091;-76
2023/12/01 02:09:06;;;;;;;30.37;13.60;;;-1.20;99.90;;;;;;4994150;28;20100;-76
2023/12/01 02:11:32;;;;;;;31.97;13.83;;;-1.10;99.90;;;;;;5008173;28;20194;-77
2023/12/01 02:14:01;;;;;;;30.50;13.70;;;-1.10;99.90;;;;;;4996642;28;20041;-76
2023/12/01 02:16:26;;;;;;;31.83;13.67;;;-1.20;99.90;;;;;;4991822;28;20037;-77
2023/12/01 02:18:54;;;;;;;29.80;13.50;;;-1.20;99.90;;;;;;5001986;28;20121;-77
2023/12/01 02:21:24;;;;;;;31.10;13.87;;;-1.10;99.90;;;;;;4993167;28;20053;-77
2023/12/01 02:23:54;;;;;;;34.67;14.20;;;-1.20;99.90;;;;;;4994824;28;20038;-76
2023/12/01 02:26:20;;;;;;;33.43;13.97;;;-1.20;99.90;;;;;;4996696;28;20053;-77
2023/12/01 02:28:46;;;;;;;31.07;13.70;;;-1.20;99.90;;;;;;4990861;28;20109;-77
2023/12/01 02:31:13;;;;;;;30.43;14.07;;;-1.30;99.90;;;;;;4988241;28;20084;-77
2023/12/01 02:33:39;;;;;;;32.23;14.17;;;-0.20;99.90;;;;;;4984321;28;20038;-77
2023/12/01 02:36:06;;;;;;;36.73;14.30;;;-1.30;99.90;;;;;;4992185;28;20109;-76
2023/12/01 02:38:33;;;;;;;31.47;13.43;;;-1.30;99.90;;;;;;4987394;28;20040;-77
2023/12/01 02:40:59;;;;;;;31.67;13.80;;;-1.30;99.90;;;;;;4973978;28;20096;-77
2023/12/01 02:43:24;;;;;;;28.13;11.77;;;-1.30;99.90;;;;;;4991937;28;20511;-76
2023/12/01 02:45:50;;;;;;;32.10;13.20;;;-1.40;99.90;;;;;;4980481;28;20033;-76
2023/12/01 02:48:16;;;;;;;35.97;13.53;;;-1.30;99.90;;;;;;4991518;28;20114;-77
2023/12/01 02:50:42;;;;;;;36.83;15.87;;;-1.40;99.90;;;;;;4993100;28;20037;-76
2023/12/01 02:53:08;;;;;;;33.93;13.80;;;-1.30;99.90;;;;;;5010681;28;20044;-77
2023/12/01 02:55:34;;;;;;;34.47;13.07;;;-1.30;99.90;;;;;;5010031;28;20096;-76
2023/12/01 02:58:00;;;;;;;37.77;14.07;;;-1.30;99.90;;;;;;5014082;28;20042;-77
2023/12/01 03:00:26;;;;;;;35.90;13.63;;;-1.30;99.90;;;;;;4991876;28;20041;-77
2023/12/01 03:02:52;;;;;;;38.57;14.87;;;-1.40;99.90;;;;;;4990997;28;20041;-77
2023/12/01 03:05:19;;;;;;;40.30;15.40;;;-1.40;99.90;;;;;;5012655;28;20034;-77
2023/12/01 03:07:45;;;;;;;35.83;14.23;;;-1.40;99.90;;;;;;5006376;28;20041;-77
2023/12/01 03:10:12;;;;;;;36.43;15.03;;;-1.40;99.90;;;;;;5011599;28;20086;-77
2023/12/01 03:12:39;;;;;;;32.53;13.23;;;-1.50;99.90;;;;;;4985011;28;20046;-77
2023/12/01 03:15:09;;;;;;;35.00;13.07;;;-0.30;99.90;;;;;;5011024;28;20073;-78
2023/12/01 03:17:36;;;;;;;39.13;14.30;;;-1.60;99.90;;;;;;4991556;28;20147;-78
2023/12/01 03:20:10;;;;;;;34.07;14.03;;;-1.60;99.90;;;;;;4989163;28;20458;-78
2023/12/01 03:22:36;;;;;;;38.00;13.83;;;-1.70;99.90;;;;;;5004967;28;20125;-78
2023/12/01 03:25:02;;;;;;;34.50;13.67;;;-1.80;99.90;;;;;;4996567;28;20115;-78
2023/12/01 03:27:28;;;;;;;30.97;12.97;;;-1.80;99.90;;;;;;4988554;28;20058;-78
2023/12/01 03:29:54;;;;;;;31.77;13.10;;;-1.90;99.90;;;;;;4989480;28;20062;-78
2023/12/01 03:32:20;;;;;;;32.63;12.47;;;-2.00;99.90;;;;;;4990587;28;20519;-78
2023/12/01 03:34:45;;;;;;;30.50;12.27;;;-2.00;99.90;;;;;;5010089;28;20042;-78
2023/12/01 03:37:11;;;;;;;32.40;12.50;;;-2.00;99.90;;;;;;4987640;28;20046;-78
2023/12/01 03:39:37;;;;;;;34.30;14.07;;;-2.10;99.90;;;;;;4994827;28;20084;-77
2023/12/01 03:42:04;;;;;;;31.07;12.27;;;-2.10;99.90;;;;;;5010848;28;20469;-77
2023/12/01 03:44:29;;;;;;;36.43;13.13;;;-2.10;99.90;;;;;;4978338;28;20496;-77
2023/12/01 03:46:55;;;;;;;34.80;13.53;;;-2.20;99.90;;;;;;4991948;28;20038;-78
2023/12/01 03:49:21;;;;;;;31.27;12.60;;;-2.20;99.90;;;;;;4991598;28;20088;-77
2023/12/01 03:51:47;;;;;;;31.97;12.83;;;-2.20;99.90;;;;;;4994706;28;20124;-78
2023/12/01 03:54:12;;;;;;;30.47;12.83;;;-2.20;99.90;;;;;;5013684;28;20065;-78
2023/12/01 03:56:39;;;;;;;32.53;13.17;;;-2.20;99.90;;;;;;4987549;28;20140;-78
2023/12/01 03:59:09;;;;;;;32.20;13.20;;;-2.20;99.90;;;;;;5010779;28;20543;-78
2023/12/01 04:01:39;;;;;;;31.00;12.20;;;-2.30;99.90;;;;;;4974039;28;20046;-79
2023/12/01 04:04:05;;;;;;;29.27;11.17;;;-2.30;99.90;;;;;;4999598;28;20034;-78
2023/12/01 04:06:35;;;;;;;29.97;12.10;;;-2.30;99.90;;;;;;5010773;28;20377;-79
2023/12/01 04:09:05;;;;;;;31.67;11.80;;;-2.40;99.90;;;;;;5015764;28;20033;-79
2023/12/01 04:11:32;;;;;;;31.00;11.80;;;-2.40;99.90;;;;;;4998201;28;20045;-79
2023/12/01 04:13:58;;;;;;;33.57;12.27;;;-2.40;99.90;;;;;;5001386;28;20040;-79
2023/12/01 04:16:24;;;;;;;35.27;12.33;;;-2.40;99.90;;;;;;4996449;28;20117;-79
2023/12/01 04:18:51;;;;;;;31.97;11.67;;;-2.50;99.90;;;;;;4987020;28;20041;-79
2023/12/01 04:21:17;;;;;;;31.17;12.30;;;-2.40;99.90;;;;;;5020489;28;20034;-79
2023/12/01 04:23:42;;;;;;;33.10;12.57;;;-2.50;99.90;;;;;;4987806;28;20105;-79
2023/12/01 04:26:08;;;;;;;31.87;11.57;;;-2.50;99.90;;;;;;4997503;28;20058;-79
2023/12/01 04:28:34;;;;;;;34.63;13.13;;;-2.60;99.90;;;;;;5015542;28;20048;-79
2023/12/01 04:30:59;;;;;;;32.27;12.03;;;-2.60;99.90;;;;;;5014894;28;20053;-80
2023/12/01 04:33:25;;;;;;;32.37;12.67;;;-2.60;99.90;;;;;;4995933;28;20041;-80
2023/12/01 04:35:50;;;;;;;32.90;11.93;;;-2.60;99.90;;;;;;4990405;28;20069;-80
2023/12/01 04:38:16;;;;;;;31.07;11.43;;;-2.60;99.90;;;;;;5017257;28;20065;-80
2023/12/01 04:40:42;;;;;;;30.33;11.53;;;-2.70;99.90;;;;;;4996559;28;20093;-80
2023/12/01 04:43:08;;;;;;;31.33;12.37;;;-2.70;99.90;;;;;;5016355;28;20419;-81
2023/12/01 04:45:36;;;;;;;30.00;11.97;;;-2.70;99.90;;;;;;5015746;28;20495;-80
2023/12/01 04:48:02;;;;;;;31.20;11.57;;;-2.70;99.90;;;;;;5000295;28;20112;-81
2023/12/01 04:50:30;;;;;;;32.50;12.53;;;-2.70;99.90;;;;;;4997269;28;20070;-80
2023/12/01 04:53:01;;;;;;;31.90;12.63;;;-2.80;99.90;;;;;;5003224;28;20395;-80
2023/12/01 04:55:28;;;;;;;33.00;13.10;;;-2.80;99.90;;;;;;5025518;28;20045;-80
2023/12/01 04:57:55;;;;;;;31.73;11.83;;;-2.80;99.90;;;;;;5028352;28;20038;-81
2023/12/01 05:00:22;;;;;;;32.23;11.90;;;-2.80;99.90;;;;;;4983447;28;20046;-81
2023/12/01 05:02:53;;;;;;;33.00;12.83;;;-2.80;99.90;;;;;;5007420;28;20415;-81
2023/12/01 05:05:21;;;;;;;32.30;12.17;;;-2.80;99.90;;;;;;5001357;28;20042;-81
2023/12/01 05:07:49;;;;;;;30.60;12.30;;;-2.90;99.90;;;;;;5007939;28;20042;-81
2023/12/01 05:10:16;;;;;;;33.70;12.13;;;-2.90;99.90;;;;;;5018816;28;20042;-81
2023/12/01 05:12:44;;;;;;;31.73;12.57;;;-2.90;99.90;;;;;;5018068;28;20061;-81
2023/12/01 05:15:17;;;;;;;34.17;13.13;;;-2.90;99.90;;;;;;5023262;28;20435;-81
2023/12/01 05:17:44;;;;;;;32.92;12.15;;;-3.00;99.90;;;;;;5006481;28;20088;-81
2023/12/01 05:20:15;;;;;;;35.10;13.20;;;-3.00;99.90;;;;;;5023181;28;20034;-81
2023/12/01 05:22:43;;;;;;;35.20;12.57;;;-3.00;99.90;;;;;;5009259;28;20037;-81
2023/12/01 05:25:13;;;;;;;30.43;11.60;;;-2.80;99.90;;;;;;5003269;28;20030;-81
2023/12/01 05:27:43;;;;;;;31.27;12.30;;;-3.10;99.90;;;;;;5025487;28;20504;-81
2023/12/01 05:30:12;;;;;;;31.97;11.90;;;-3.10;99.90;;;;;;4990155;28;20041;-81
2023/12/01 05:32:44;;;;;;;29.73;12.27;;;-3.10;99.90;;;;;;4988269;28;20048;-80
2023/12/01 05:35:10;;;;;;;31.13;12.20;;;-3.10;99.90;;;;;;5021440;28;20038;-81
2023/12/01 05:37:50;;;;;;;28.83;11.43;;;-3.10;99.90;;;;;;5004944;28;20053;-81
2023/12/01 05:40:18;;;;;;;35.57;11.97;;;-3.10;99.90;;;;;;5016478;28;20034;-81
2023/12/01 05:42:44;;;;;;;33.77;13.73;;;-3.10;99.90;;;;;;5005052;28;20708;-81
2023/12/01 05:45:11;;;;;;;32.57;11.77;;;-3.20;99.90;;;;;;4998542;28;20057;-81
2023/12/01 05:47:42;;;;;;;32.90;12.07;;;-3.20;99.90;;;;;;5006108;28;20526;-80
2023/12/01 05:50:22;;;;;;;29.03;11.67;;;-3.20;99.90;;;;;;5006081;28;20090;-80
2023/12/01 05:52:50;;;;;;;33.50;12.17;;;-3.20;99.90;;;;;;5011828;28;20038;-80
2023/12/01 05:55:24;;;;;;;31.43;12.80;;;-3.20;99.90;;;;;;5026002;28;20511;-80
2023/12/01 05:58:04;;;;;;;27.63;11.30;;;-3.20;99.90;;;;;;5002764;28;20037;-80
2023/12/01 06:00:31;;;;;;;29.70;11.13;;;-3.30;99.90;;;;;;5002877;28;20041;-80
2023/12/01 06:03:07;;;;;;;31.57;12.47;;;-3.30;99.90;;;;;;4981758;28;20042;-80
2023/12/01 06:05:33;;;;;;;30.43;12.10;;;-3.30;99.90;;;;;;5003583;28;20159;-80
2023/12/01 06:08:00;;;;;;;28.00;12.07;;;-3.30;99.90;;;;;;5026248;28;20034;-80
2023/12/01 06:10:29;;;;;;;30.50;12.10;;;-3.30;99.90;;;;;;5002429;28;20030;-82
2023/12/01 06:12:55;;;;;;;30.63;12.40;;;-3.30;99.90;;;;;;4984629;28;20410;-82
2023/12/01 06:15:22;;;;;;;28.57;11.47;;;-3.40;99.90;;;;;;5002164;28;20056;-82
2023/12/01 06:17:50;;;;;;;30.20;12.10;;;-3.40;99.90;;;;;;4988433;28;20030;-80
2023/12/01 06:20:17;;;;;;;27.77;12.03;;;-3.40;99.90;;;;;;4995094;28;20541;-81
2023/12/01 06:22:59;;;;;;;28.03;11.37;;;-3.40;99.90;;;;;;5009375;28;20092;-81
2023/12/01 06:25:28;;;;;;;27.63;10.87;;;-3.40;99.90;;;;;;4978708;28;20038;-81
2023/12/01 06:27:58;;;;;;;33.70;11.73;;;-3.50;99.90;;;;;;4987289;28;20034;-82
2023/12/01 06:30:26;;;;;;;27.80;10.23;;;-4.30;99.90;;;;;;4986007;28;20034;-81
2023/12/01 06:32:52;;;;;;;27.77;11.53;;;-4.70;99.90;;;;;;4980567;28;20518;-81
2023/12/01 06:35:21;;;;;;;27.43;12.40;;;-3.80;99.90;;;;;;4975589;28;20117;-81
2023/12/01 06:37:48;;;;;;;27.63;10.63;;;-2.40;99.90;;;;;;5006529;28;20107;-81
2023/12/01 06:40:15;;;;;;;29.23;11.60;;;-3.50;99.90;;;;;;4979429;28;20046;-81
2023/12/01 06:42:43;;;;;;;25.47;11.10;;;-3.60;99.90;;;;;;5015356;28;20052;-80
2023/12/01 06:45:19;;;;;;;30.00;11.53;;;-3.50;99.90;;;;;;5005544;28;20029;-80
2023/12/01 06:47:47;;;;;;;24.50;10.90;;;-3.60;99.90;;;;;;5019471;28;20034;-81
2023/12/01 06:50:16;;;;;;;28.93;10.50;;;-3.60;99.90;;;;;;4992756;28;20033;-81
2023/12/01 06:52:43;;;;;;;25.57;10.50;;;-3.60;99.90;;;;;;4995670;28;20124;-80
2023/12/01 06:55:09;;;;;;;25.83;11.10;;;-3.70;99.90;;;;;;5007506;28;20434;-81
2023/12/01 06:57:38;;;;;;;27.03;11.43;;;-3.70;99.90;;;;;;5005258;28;20042;-81
2023/12/01 07:00:07;;;;;;;35.53;12.33;;;-3.70;99.90;;;;;;4986203;28;20066;-80
2023/12/01 07:02:34;;;;;;;28.37;11.87;;;-3.70;99.90;;;;;;4985746;28;20046;-81
2023/12/01 07:05:00;;;;;;;27.20;10.77;;;-3.70;99.90;;;;;;4996505;28;20041;-80
2023/12/01 07:07:30;;;;;;;24.43;11.10;;;-3.80;99.90;;;;;;5007696;28;20060;-81
2023/12/01 07:09:56;;;;;;;25.40;12.40;;;-3.80;99.90;;;;;;5006576;28;20029;-81
2023/12/01 07:12:22;;;;;;;25.67;11.50;;;-4.00;99.90;;;;;;5024205;28;20053;-80
2023/12/01 07:14:48;;;;;;;26.27;10.80;;;-4.10;99.90;;;;;;5025039;28;20092;-81
2023/12/01 07:17:14;;;;;;;26.47;11.80;;;-4.10;99.90;;;;;;4989199;28;20097;-81
2023/12/01 07:19:40;;;;;;;25.87;11.23;;;-4.10;99.90;;;;;;5001808;28;20049;-80
2023/12/01 07:22:06;;;;;;;28.23;11.53;;;-4.10;99.90;;;;;;5004454;28;20042;-81
2023/12/01 07:24:32;;;;;;;23.97;10.83;;;-4.10;99.90;;;;;;5008682;28;20033;-80
2023/12/01 07:26:58;;;;;;;28.27;11.77;;;-4.00;99.90;;;;;;5005417;28;20069;-80
2023/12/01 07:29:23;;;;;;;28.20;11.17;;;-4.20;99.90;;;;;;5019427;28;20454;-80
2023/12/01 07:31:51;;;;;;;30.27;12.57;;;-4.20;99.90;;;;;;4999476;28;20068;-80
2023/12/01 07:34:18;;;;;;;28.40;11.93;;;-4.20;99.90;;;;;;5004023;28;20550;-80
2023/12/01 07:36:44;;;;;;;25.13;10.90;;;-4.30;99.90;;;;;;5003881;28;20038;-80
2023/12/01 07:39:09;;;;;;;32.03;13.07;;;-4.20;99.90;;;;;;5017691;28;20045;-81
2023/12/01 07:41:35;;;;;;;27.20;11.63;;;-4.20;99.90;;;;;;5005100;28;20189;-80
2023/12/01 07:44:02;;;;;;;30.50;11.80;;;-4.10;99.90;;;;;;4984904;28;20049;-80
2023/12/01 07:46:32;;;;;;;31.10;12.10;;;-4.00;99.90;;;;;;5002785;28;20045;-80
2023/12/01 07:48:58;;;;;;;28.27;11.70;;;-4.00;99.90;;;;;;5024870;28;20483;-80
2023/12/01 07:51:25;;;;;;;29.43;11.67;;;-3.90;99.90;;;;;;5026112;28;20041;-80
2023/12/01 07:53:51;;;;;;;28.43;10.10;;;-4.00;99.90;;;;;;5011531;28;20392;-80
2023/12/01 07:56:21;;;;;;;30.13;11.47;;;-3.90;99.90;;;;;;5022781;28;20045;-80
2023/12/01 07:58:48;;;;;;;26.47;10.77;;;-4.00;99.90;;;;;;4992564;28;20064;-80
2023/12/01 08:01:14;;;;;;;30.17;12.03;;;-3.90;99.90;;;;;;5002226;28;20116;-80
2023/12/01 08:03:46;;;;;;;27.93;11.17;;;-3.90;99.90;;;;;;5002158;28;20049;-80
2023/12/01 08:06:13;;;;;;;27.67;10.60;;;-3.90;99.90;;;;;;4986856;28;20080;-80
2023/12/01 08:08:39;;;;;;;26.83;10.47;;;-3.90;99.90;;;;;;4997828;28;20120;-80
2023/12/01 08:11:05;;;;;;;26.03;11.57;;;-3.90;99.90;;;;;;5025249;28;20184;-80
2023/12/01 08:13:31;;;;;;;27.93;11.67;;;-3.90;99.90;;;;;;5011114;28;20109;-80
2023/12/01 08:15:56;;;;;;;30.30;11.93;;;-3.90;99.90;;;;;;5004672;28;20053;-80
2023/12/01 08:18:22;;;;;;;29.87;11.90;;;-3.90;99.90;;;;;;5006058;28;20034;-82
2023/12/01 08:20:49;;;;;;;25.83;10.87;;;-3.80;99.90;;;;;;4981273;28;20046;-79
2023/12/01 08:23:15;;;;;;;29.30;11.53;;;-3.80;99.90;;;;;;4998085;28;20037;-82
2023/12/01 08:25:43;;;;;;;24.60;10.93;;;-3.70;99.90;;;;;;5012504;28;20034;-80
2023/12/01 08:28:09;;;;;;;25.57;11.10;;;-3.70;99.90;;;;;;5014002;28;20038;-80
2023/12/01 08:30:35;;;;;;;27.30;11.60;;;-3.60;99.90;;;;;;4998997;28;20051;-80
2023/12/01 08:33:00;;;;;;;24.33;10.93;;;-3.60;99.90;;;;;;5000742;28;20030;-80
2023/12/01 08:35:26;;;;;;;27.07;11.13;;;-3.60;99.90;;;;;;5016443;28;20045;-81
2023/12/01 08:37:52;;;;;;;24.90;11.00;;;-3.50;99.90;;;;;;4998430;28;20038;-80
2023/12/01 08:40:18;;;;;;;27.47;11.87;;;-3.50;99.90;;;;;;4984306;28;20041;-80
2023/12/01 08:42:43;;;;;;;27.97;11.87;;;-3.50;99.90;;;;;;4998598;28;20137;-80
2023/12/01 08:45:10;;;;;;;32.57;12.60;;;-3.50;99.90;;;;;;4995870;28;20037;-81
2023/12/01 08:47:35;;;;;;;29.93;12.53;;;-3.40;99.90;;;;;;4994965;28;20091;-81
2023/12/01 08:50:01;;;;;;;28.97;11.93;;;-3.40;99.90;;;;;;4997856;28;20030;-83
2023/12/01 08:52:27;;;;;;;31.17;14.07;;;-3.30;99.90;;;;;;4999303;28;20038;-83
2023/12/01 08:54:53;;;;;;;27.93;12.70;;;-3.30;99.90;;;;;;4994407;28;20041;-79
2023/12/01 08:57:18;;;;;;;26.03;12.03;;;-3.20;99.90;;;;;;4994585;28;20068;-79
2023/12/01 08:59:44;;;;;;;24.30;11.80;;;-3.20;99.90;;;;;;4993907;28;20064;-78
2023/12/01 09:02:10;;;;;;;31.30;12.80;;;-3.10;99.90;;;;;;4998363;28;20034;-77
2023/12/01 09:04:35;;;;;;;28.37;11.73;;;-3.10;99.90;;;;;;4996568;28;20116;-79
2023/12/01 09:07:01;;;;;;;25.50;11.90;;;-3.00;99.90;;;;;;5008147;28;20034;-77
2023/12/01 09:09:27;;;;;;;27.90;12.53;;;-2.60;99.90;;;;;;5015432;28;20037;-79
2023/12/01 09:11:53;;;;;;;26.07;12.10;;;-2.90;99.90;;;;;;4998294;28;20041;-78
2023/12/01 09:14:19;;;;;;;27.50;13.47;;;-2.90;99.90;;;;;;5011589;28;20070;-78
2023/12/01 09:16:45;;;;;;;26.93;12.40;;;-2.90;99.90;;;;;;4995913;28;20037;-78
2023/12/01 09:19:10;;;;;;;32.50;13.77;;;-2.80;99.90;;;;;;4994745;28;20080;-77
2023/12/01 09:21:36;;;;;;;31.57;13.37;;;-2.80;99.90;;;;;;5012983;28;20041;-78
2023/12/01 09:24:02;;;;;;;26.27;12.23;;;-2.80;99.90;;;;;;4997606;28;20096;-79
2023/12/01 09:26:31;;;;;;;29.30;13.03;;;-2.80;99.90;;;;;;4998143;28;20690;-79
2023/12/01 09:28:57;;;;;;;29.87;12.57;;;-2.70;99.90;;;;;;4997763;28;20081;-78
2023/12/01 09:31:23;;;;;;;28.27;13.17;;;-2.70;99.90;;;;;;4996825;28;20069;-77
2023/12/01 09:33:49;;;;;;;28.83;14.13;;;-2.60;99.90;;;;;;4993254;28;20133;-77
2023/12/01 09:36:17;;;;;;;29.57;13.17;;;-2.60;99.90;;;;;;4993277;28;20448;-77
2023/12/01 09:38:44;;;;;;;26.07;12.10;;;-2.50;99.90;;;;;;4994243;28;20052;-78
2023/12/01 09:41:10;;;;;;;29.20;13.43;;;-2.50;99.90;;;;;;4997170;28;20069;-78
2023/12/01 09:43:38;;;;;;;29.20;13.37;;;-2.40;99.90;;;;;;4997916;28;20089;-78
2023/12/01 09:46:04;;;;;;;27.20;12.80;;;-2.40;99.90;;;;;;4997463;28;20041;-79
2023/12/01 09:48:34;;;;;;;29.33;13.27;;;-2.30;99.90;;;;;;5013031;28;20030;-79
2023/12/01 09:51:00;;;;;;;27.37;12.87;;;-2.30;99.90;;;;;;5015434;28;20109;-80
2023/12/01 09:53:25;;;;;;;28.23;13.10;;;-2.20;99.90;;;;;;4998121;28;20050;-80
2023/12/01 09:55:51;;;;;;;25.60;12.40;;;-2.30;99.90;;;;;;5002387;28;20113;-80
2023/12/01 09:58:19;;;;;;;24.53;11.83;;;-2.20;99.90;;;;;;5002354;28;20511;-79
2023/12/01 10:00:48;;;;;;;26.70;12.27;;;-2.10;99.90;;;;;;5015504;28;20484;-80
2023/12/01 10:03:13;;;;;;;25.50;12.67;;;-2.10;99.90;;;;;;4997321;28;20057;-79
2023/12/01 10:05:40;;;;;;;25.40;11.13;;;-2.10;99.90;;;;;;4996806;28;20033;-81
2023/12/01 10:08:06;;;;;;;25.57;11.67;;;-2.10;99.90;;;;;;4994793;28;20160;-81
2023/12/01 10:10:33;;;;;;;27.70;12.37;;;-2.00;99.90;;;;;;4994684;28;20495;-81
2023/12/01 10:13:07;;;;;;;25.80;11.77;;;-2.00;99.90;;;;;;5013247;28;20030;-78
2023/12/01 10:15:38;;;;;;;28.13;12.37;;;-1.90;99.90;;;;;;4979762;28;20038;-77
2023/12/01 10:18:11;;;;;;;26.03;11.50;;;-1.90;99.90;;;;;;5013039;28;20527;-77
2023/12/01 10:20:36;;;;;;;26.83;11.57;;;-1.80;99.90;;;;;;4994161;28;20041;-77
2023/12/01 10:23:18;;;;;;;26.00;11.87;;;-1.80;99.90;;;;;;4994220;28;20518;-77
2023/12/01 10:25:51;;;;;;;26.33;11.77;;;-1.80;99.90;;;;;;4994412;28;20537;-76
2023/12/01 10:28:17;;;;;;;24.20;12.03;;;-1.80;99.90;;;;;;4986517;28;20488;-77
2023/12/01 10:30:56;;;;;;;24.20;11.50;;;-1.70;99.90;;;;;;4976893;28;20034;-76
2023/12/01 10:33:23;;;;;;;25.90;12.27;;;-1.70;99.90;;;;;;4992922;28;20037;-76
2023/12/01 10:35:59;;;;;;;26.17;11.30;;;-1.70;99.90;;;;;;5011170;28;20526;-76
2023/12/01 10:38:29;;;;;;;25.20;11.40;;;-1.60;99.90;;;;;;4992444;28;20093;-76
2023/12/01 10:40:56;;;;;;;27.63;12.80;;;-1.50;99.90;;;;;;4991716;28;20112;-76
2023/12/01 10:43:22;;;;;;;27.90;12.03;;;-1.50;99.90;;;;;;4990170;28;20034;-76
2023/12/01 10:45:51;;;;;;;25.40;11.43;;;-1.40;99.90;;;;;;4992039;28;20088;-75
2023/12/01 10:48:22;;;;;;;24.10;11.27;;;-1.40;99.90;;;;;;5006617;28;20064;-75
2023/12/01 10:50:49;;;;;;;23.70;11.07;;;-1.40;99.90;;;;;;5009347;28;20069;-75
2023/12/01 10:53:16;;;;;;;26.90;12.20;;;-1.30;99.90;;;;;;4987768;28;20034;-75
2023/12/01 10:55:46;;;;;;;22.53;11.07;;;-1.30;99.90;;;;;;5009977;28;20449;-75
2023/12/01 10:58:20;;;;;;;24.27;11.77;;;-1.20;99.90;;;;;;4990616;28;20038;-75
2023/12/01 11:00:50;;;;;;;21.30;11.13;;;-1.20;99.90;;;;;;4984115;28;20131;-75
2023/12/01 11:03:25;;;;;;;26.20;12.03;;;-1.20;99.90;;;;;;4989086;28;20038;-75
2023/12/01 11:05:55;;;;;;;26.40;12.13;;;-1.10;99.90;;;;;;4985646;28;20047;-74
2023/12/01 11:08:41;;;;;;;24.37;12.07;;;-1.10;99.90;;;;;;4993141;28;20042;-74
2023/12/01 11:11:21;;;;;;;23.83;11.53;;;-1.10;99.90;;;;;;4985775;28;20121;-74
2023/12/01 11:14:17;;;;;;;25.50;12.27;;;-1.00;99.90;;;;;;5012457;28;20100;-73
2023/12/01 11:16:43;;;;;;;25.80;12.23;;;-1.00;99.90;;;;;;5010308;28;20569;-74
2023/12/01 11:19:10;;;;;;;26.33;11.93;;;-1.00;99.90;;;;;;4993427;28;20124;-76
2023/12/01 11:21:40;;;;;;;21.53;11.27;;;-1.00;99.90;;;;;;4992162;28;20061;-74
2023/12/01 11:24:35;;;;;;;23.20;11.97;;;-1.00;99.90;;;;;;4991526;28;20567;-75
2023/12/01 11:27:05;;;;;;;26.87;12.37;;;-0.90;99.90;;;;;;4990741;28;20598;-74
2023/12/01 11:29:36;;;;;;;24.07;11.83;;;-0.90;99.90;;;;;;4993918;28;20048;-75
2023/12/01 11:32:06;;;;;;;25.17;11.77;;;-0.90;99.90;;;;;;4977455;28;20030;-76
2023/12/01 11:34:32;;;;;;;24.77;11.30;;;-0.80;99.90;;;;;;4976612;28;20056;-76
2023/12/01 11:37:00;;;;;;;25.27;12.33;;;-0.80;99.90;;;;;;4989839;28;20117;-76
2023/12/01 11:39:27;;;;;;;24.50;11.67;;;-0.70;99.90;;;;;;4993365;28;20045;-76
2023/12/01 11:42:00;;;;;;;26.47;11.83;;;-0.60;99.90;;;;;;4992612;28;20172;-76
2023/12/01 11:44:27;;;;;;;24.80;11.77;;;-0.50;99.90;;;;;;4993992;28;20050;-76
2023/12/01 11:46:57;;;;;;;25.80;12.13;;;-0.50;99.90;;;;;;4992948;28;20037;-76
2023/12/01 11:49:31;;;;;;;26.50;12.43;;;-0.50;99.90;;;;;;4991064;28;20038;-75
2023/12/01 11:52:01;;;;;;;25.00;11.73;;;-0.50;99.90;;;;;;4983730;28;20049;-76
2023/12/01 11:54:27;;;;;;;25.20;11.77;;;-0.50;99.90;;;;;;4990629;28;20048;-77
2023/12/01 11:56:56;;;;;;;24.33;12.63;;;-0.60;99.90;;;;;;5006086;28;20037;-76
2023/12/01 11:59:22;;;;;;;26.23;12.27;;;-0.60;99.90;;;;;;4992836;28;20558;-75
2023/12/01 12:01:52;;;;;;;24.53;12.03;;;-0.60;99.90;;;;;;4991745;28;20525;-76
2023/12/01 12:04:17;;;;;;;26.23;12.57;;;-0.60;99.90;;;;;;4985074;28;20034;-73
2023/12/01 12:06:46;;;;;;;26.20;13.50;;;-0.50;99.90;;;;;;4976018;28;20034;-76
2023/12/01 12:09:19;;;;;;;25.03;11.93;;;-0.50;99.90;;;;;;5011963;28;20116;-75
2023/12/01 12:11:52;;;;;;;23.93;12.40;;;-0.50;99.90;;;;;;4985164;28;20038;-75
2023/12/01 12:14:24;;;;;;;29.27;14.07;;;-0.50;99.90;;;;;;4979443;28;20658;-75
2023/12/01 12:16:51;;;;;;;27.60;13.37;;;-0.50;99.90;;;;;;4985608;28;20073;-75
2023/12/01 12:19:17;;;;;;;26.60;13.50;;;-0.60;99.90;;;;;;4993073;28;20089;-76
2023/12/01 12:21:44;;;;;;;25.47;12.90;;;-0.60;99.90;;;;;;4990180;28;20129;-76
2023/12/01 12:24:10;;;;;;;27.00;13.20;;;-0.50;99.90;;;;;;4990768;28;20156;-75
2023/12/01 12:26:36;;;;;;;26.73;13.00;;;-0.40;99.90;;;;;;4991103;28;20133;-76
2023/12/01 12:29:04;;;;;;;25.60;13.40;;;-0.40;99.90;;;;;;4989800;28;20167;-76
2023/12/01 12:31:37;;;;;;;25.70;13.37;;;-0.50;99.90;;;;;;4987449;28;20037;-76